Time;durP1;ratioP1;P1;durP2;ratioP2;P2;SDS_P1;SDS_P2;PMS_P1;PMS_P2;Temp;Humidity;BMP_temperature;BMP_pressure;BME280_temperature;BME280_humidity;BME280_pressure;Samples;Min_cycle;Max_cycle;Signal;HPM_P1;HPM_P2
2021/04/26 00:00:21;;;;;;;4.43;0.77;;;5.70;99.90;;;;;;5045974;28;20039;-73
2021/04/26 00:02:46;;;;;;;1.80;0.88;;;5.60;99.90;;;;;;5044659;28;20026;-74
2021/04/26 00:05:15;;;;;;;1.38;0.70;;;5.50;99.90;;;;;;5045909;28;20128;-73
2021/04/26 00:07:41;;;;;;;1.08;0.70;;;5.60;99.90;;;;;;5045739;28;20509;-73
2021/04/26 00:10:08;;;;;;;0.98;0.57;;;5.60;99.90;;;;;;5045850;28;20037;-74
2021/04/26 00:12:33;;;;;;;4.07;1.02;;;5.60;99.90;;;;;;5046068;28;20017;-74
2021/04/26 00:14:59;;;;;;;2.17;0.70;;;5.60;99.90;;;;;;5045608;28;20109;-73
2021/04/26 00:17:25;;;;;;;0.82;0.57;;;5.50;99.90;;;;;;5044213;28;20038;-73
2021/04/26 00:19:50;;;;;;;2.15;0.75;;;5.50;99.90;;;;;;5045483;28;20047;-73
2021/04/26 00:22:16;;;;;;;1.95;0.90;;;5.40;99.90;;;;;;5045261;28;20053;-73
2021/04/26 00:24:42;;;;;;;5.10;1.08;;;5.20;99.90;;;;;;5045658;28;20025;-74
2021/04/26 00:27:08;;;;;;;1.58;0.55;;;5.10;99.90;;;;;;5044182;28;20025;-73
2021/04/26 00:29:34;;;;;;;1.02;0.52;;;5.10;99.90;;;;;;5045556;28;20038;-73
2021/04/26 00:32:00;;;;;;;2.05;0.65;;;5.00;99.90;;;;;;5045396;28;20357;-73
2021/04/26 00:34:25;;;;;;;4.78;0.88;;;5.00;99.90;;;;;;5045218;28;20037;-73
2021/04/26 00:36:51;;;;;;;3.10;0.90;;;4.80;99.90;;;;;;5045230;28;20029;-73
2021/04/26 00:39:17;;;;;;;1.15;0.60;;;4.70;99.90;;;;;;5045278;28;20030;-72
2021/04/26 00:41:43;;;;;;;1.25;0.68;;;4.60;99.90;;;;;;5045157;28;20056;-74
2021/04/26 00:44:08;;;;;;;1.08;0.68;;;4.60;99.90;;;;;;5044091;28;20028;-73
2021/04/26 00:46:34;;;;;;;1.08;0.68;;;4.60;99.90;;;;;;5043989;28;20040;-74
2021/04/26 00:49:00;;;;;;;1.70;0.70;;;4.70;99.90;;;;;;5043922;28;20370;-73
2021/04/26 00:51:25;;;;;;;8.23;0.60;;;4.70;99.90;;;;;;5044987;28;20034;-73
2021/04/26 00:53:52;;;;;;;2.35;0.60;;;4.60;99.90;;;;;;5044358;28;20100;-72
2021/04/26 00:56:18;;;;;;;4.57;0.98;;;4.60;99.90;;;;;;5044756;28;20029;-72
2021/04/26 00:58:43;;;;;;;0.80;0.32;;;4.50;99.90;;;;;;5044930;28;20041;-72
2021/04/26 01:01:10;;;;;;;1.00;0.65;;;4.40;99.90;;;;;;5043658;28;20025;-73
2021/04/26 01:03:36;;;;;;;3.45;0.95;;;4.40;99.90;;;;;;5045147;28;20022;-73
2021/04/26 01:06:03;;;;;;;1.17;0.63;;;4.40;99.90;;;;;;5044937;28;20042;-72
2021/04/26 01:08:28;;;;;;;1.98;0.88;;;4.30;99.90;;;;;;5044737;28;20029;-72
2021/04/26 01:10:55;;;;;;;2.45;0.60;;;4.20;99.90;;;;;;5043508;28;20033;-73
2021/04/26 01:13:32;;;;;;;1.90;0.93;;;4.20;99.90;;;;;;5044825;28;20573;-72
2021/04/26 01:16:29;;;;;;;1.30;0.60;;;4.20;99.90;;;;;;5043448;28;20025;-73
2021/04/26 01:19:07;;;;;;;1.33;0.80;;;4.10;99.90;;;;;;5043451;28;20034;-74
2021/04/26 01:22:05;;;;;;;1.23;0.57;;;3.90;99.90;;;;;;5044956;28;20532;-75
2021/04/26 01:24:51;;;;;;;1.75;0.60;;;3.90;99.90;;;;;;5043705;28;20478;-73
2021/04/26 01:27:51;;;;;;;0.80;0.68;;;3.90;99.90;;;;;;5044474;28;20459;-73
2021/04/26 01:30:39;;;;;;;9.80;0.93;;;3.90;99.90;;;;;;5044382;28;20064;-74
2021/04/26 01:33:22;;;;;;;3.50;0.88;;;3.90;99.90;;;;;;5044658;28;20026;-74
2021/04/26 01:35:49;;;;;;;5.88;0.60;;;3.90;99.90;;;;;;5044614;28;20109;-73
2021/04/26 01:38:22;;;;;;;5.35;0.93;;;3.80;99.90;;;;;;5044561;28;20155;-73
2021/04/26 01:40:51;;;;;;;3.63;0.93;;;3.70;99.90;;;;;;5044853;28;20117;-73
2021/04/26 01:43:20;;;;;;;4.47;0.65;;;3.80;99.90;;;;;;5044441;28;20052;-73
2021/04/26 01:45:48;;;;;;;10.30;0.80;;;3.70;99.90;;;;;;5044258;28;20436;-72
2021/04/26 01:48:15;;;;;;;3.50;0.85;;;3.60;99.90;;;;;;5043115;28;20030;-74
2021/04/26 01:50:41;;;;;;;1.25;1.00;;;3.60;99.90;;;;;;5044389;28;20157;-76
2021/04/26 01:53:09;;;;;;;0.85;0.60;;;3.50;99.90;;;;;;5043109;28;20049;-75
2021/04/26 01:55:35;;;;;;;6.53;1.38;;;3.50;99.90;;;;;;5043093;28;20523;-74
2021/04/26 01:58:02;;;;;;;2.75;1.10;;;3.50;99.90;;;;;;5043353;28;20032;-73
2021/04/26 02:00:31;;;;;;;2.42;1.00;;;3.50;99.90;;;;;;5044315;28;20104;-73
2021/04/26 02:02:58;;;;;;;1.55;0.80;;;3.50;99.90;;;;;;5044329;28;20112;-73
2021/04/26 02:05:26;;;;;;;1.95;0.77;;;3.50;99.90;;;;;;5045518;28;20099;-73
2021/04/26 02:07:52;;;;;;;1.10;0.35;;;3.50;99.90;;;;;;5046748;28;20026;-73
2021/04/26 02:10:20;;;;;;;1.67;0.90;;;3.40;99.90;;;;;;5046592;28;20072;-73
2021/04/26 02:12:49;;;;;;;0.77;0.47;;;3.40;99.90;;;;;;5048223;28;20021;-74
2021/04/26 02:15:20;;;;;;;2.13;0.63;;;3.40;99.90;;;;;;5048209;28;20036;-73
2021/04/26 02:17:46;;;;;;;1.48;0.70;;;3.40;99.90;;;;;;5046456;28;20032;-73
2021/04/26 02:20:17;;;;;;;8.10;0.82;;;3.40;99.90;;;;;;5047770;28;20037;-73
2021/04/26 02:22:42;;;;;;;0.70;0.40;;;3.40;99.90;;;;;;5047532;28;20100;-73
2021/04/26 02:25:12;;;;;;;1.17;0.60;;;3.30;99.90;;;;;;5047923;28;20036;-75
2021/04/26 02:27:38;;;;;;;1.77;0.77;;;3.20;99.90;;;;;;5047757;28;20089;-74
2021/04/26 02:30:05;;;;;;;1.35;0.70;;;3.20;99.90;;;;;;5047762;28;20425;-74
2021/04/26 02:32:39;;;;;;;2.03;0.77;;;3.20;99.90;;;;;;5047734;28;20030;-73
2021/04/26 02:35:09;;;;;;;3.53;0.70;;;3.20;99.90;;;;;;5047909;28;20037;-74
2021/04/26 02:37:43;;;;;;;5.95;0.80;;;3.10;99.90;;;;;;5046333;28;20030;-74
2021/04/26 02:40:12;;;;;;;4.85;1.08;;;3.10;99.90;;;;;;5046178;28;20501;-73
2021/04/26 02:42:44;;;;;;;2.10;1.08;;;3.10;99.90;;;;;;5047468;28;20029;-73
2021/04/26 02:45:13;;;;;;;4.50;1.00;;;3.10;99.90;;;;;;5046161;28;20033;-74
2021/04/26 02:47:41;;;;;;;2.38;1.02;;;3.00;99.90;;;;;;5047591;28;20079;-73
2021/04/26 02:50:08;;;;;;;2.70;1.42;;;3.00;99.90;;;;;;5046017;28;20068;-74
2021/04/26 02:52:35;;;;;;;2.72;1.05;;;3.00;99.90;;;;;;5047501;28;20029;-73
2021/04/26 02:55:03;;;;;;;1.58;0.70;;;3.00;99.90;;;;;;5046004;28;20053;-73
2021/04/26 02:57:33;;;;;;;3.40;1.08;;;3.00;99.90;;;;;;5047399;28;20063;-73
2021/04/26 03:00:00;;;;;;;0.55;0.45;;;3.00;99.90;;;;;;5047296;28;20038;-73
2021/04/26 03:02:27;;;;;;;1.73;0.85;;;3.00;99.90;;;;;;5045715;28;20026;-73
2021/04/26 03:04:53;;;;;;;1.70;0.73;;;3.00;99.90;;;;;;5046996;28;20037;-72
2021/04/26 03:07:20;;;;;;;3.17;1.20;;;2.90;99.90;;;;;;5046812;28;20025;-74
2021/04/26 03:09:47;;;;;;;3.60;1.10;;;2.80;99.90;;;;;;5046642;28;20064;-73
2021/04/26 03:12:13;;;;;;;3.83;1.52;;;2.80;99.90;;;;;;5045512;28;20036;-74
2021/04/26 03:14:41;;;;;;;1.60;0.80;;;2.70;99.90;;;;;;5046950;28;20026;-73
2021/04/26 03:17:08;;;;;;;6.25;1.23;;;2.80;99.90;;;;;;5046416;28;20026;-74
2021/04/26 03:19:36;;;;;;;1.42;0.82;;;2.70;99.90;;;;;;5047010;28;20044;-74
2021/04/26 03:22:03;;;;;;;1.73;1.05;;;2.70;99.90;;;;;;5046709;28;20108;-73
2021/04/26 03:24:29;;;;;;;4.18;1.35;;;2.70;99.90;;;;;;5045363;28;20057;-73
2021/04/26 03:26:56;;;;;;;4.22;0.88;;;2.70;99.90;;;;;;5046656;28;20037;-74
2021/04/26 03:29:23;;;;;;;2.63;1.15;;;2.70;99.90;;;;;;5046401;28;20101;-74
2021/04/26 03:31:50;;;;;;;9.35;0.98;;;2.70;99.90;;;;;;5045088;28;20029;-75
2021/04/26 03:34:17;;;;;;;2.83;1.48;;;2.70;99.90;;;;;;5046411;28;20017;-73
2021/04/26 03:36:44;;;;;;;2.17;1.10;;;2.70;99.90;;;;;;5046456;28;20437;-74
2021/04/26 03:39:12;;;;;;;2.33;0.77;;;2.70;99.90;;;;;;5046650;28;20026;-75
2021/04/26 03:41:39;;;;;;;1.95;1.05;;;2.70;99.90;;;;;;5045145;28;20030;-75
2021/04/26 03:44:10;;;;;;;8.02;1.65;;;2.70;99.90;;;;;;5045087;28;20060;-73
2021/04/26 03:46:56;;;;;;;10.48;1.30;;;2.70;99.90;;;;;;5046473;28;20022;-73
2021/04/26 03:49:23;;;;;;;2.85;1.27;;;2.70;99.90;;;;;;5046264;28;20029;-73
2021/04/26 03:51:49;;;;;;;1.58;0.65;;;2.70;99.90;;;;;;5046429;28;20032;-74
2021/04/26 03:54:14;;;;;;;2.38;1.27;;;2.70;99.90;;;;;;5046098;28;20026;-74
2021/04/26 03:56:40;;;;;;;2.63;1.23;;;2.70;99.90;;;;;;5046228;28;20030;-75
2021/04/26 03:59:06;;;;;;;1.25;0.60;;;2.70;99.90;;;;;;5046087;28;20032;-75
2021/04/26 04:01:32;;;;;;;1.10;0.77;;;2.70;99.90;;;;;;5046045;28;20032;-73
2021/04/26 04:03:58;;;;;;;1.48;0.90;;;2.70;99.90;;;;;;5045842;28;20533;-74
2021/04/26 04:06:23;;;;;;;2.42;0.82;;;2.80;99.90;;;;;;5044515;28;20068;-73
2021/04/26 04:08:49;;;;;;;2.92;1.45;;;2.90;99.90;;;;;;5045784;28;20489;-73
2021/04/26 04:11:15;;;;;;;3.75;1.13;;;3.00;99.90;;;;;;5045804;28;20025;-73
2021/04/26 04:13:41;;;;;;;2.22;0.88;;;3.10;99.90;;;;;;5045999;28;20037;-74
2021/04/26 04:16:07;;;;;;;1.83;1.00;;;3.00;99.90;;;;;;5045737;28;20092;-75
2021/04/26 04:18:32;;;;;;;2.15;1.02;;;3.00;99.90;;;;;;5045961;28;20037;-74
2021/04/26 04:20:58;;;;;;;5.32;1.27;;;3.00;99.90;;;;;;5044158;28;20033;-74
2021/04/26 04:23:24;;;;;;;4.68;1.58;;;3.00;99.90;;;;;;5045340;28;20057;-74
2021/04/26 04:25:49;;;;;;;2.28;1.17;;;3.00;99.90;;;;;;5045362;28;20032;-75
2021/04/26 04:28:15;;;;;;;1.60;0.75;;;3.00;99.90;;;;;;5044971;28;20033;-73
2021/04/26 04:30:40;;;;;;;1.42;1.10;;;3.00;99.90;;;;;;5045320;28;20037;-74
2021/04/26 04:33:06;;;;;;;10.68;1.85;;;3.00;99.90;;;;;;5045494;28;20026;-75
2021/04/26 04:35:32;;;;;;;8.00;1.35;;;3.00;99.90;;;;;;5045524;28;20022;-74
2021/04/26 04:37:57;;;;;;;5.93;1.88;;;3.00;99.90;;;;;;5045131;28;20067;-73
2021/04/26 04:40:23;;;;;;;3.00;1.92;;;3.00;99.90;;;;;;5045245;28;20437;-74
2021/04/26 04:42:49;;;;;;;2.90;1.25;;;3.00;99.90;;;;;;5045081;28;20033;-74
2021/04/26 04:45:15;;;;;;;6.10;2.13;;;3.00;99.90;;;;;;5045124;28;20021;-74
2021/04/26 04:47:40;;;;;;;3.25;1.10;;;3.10;99.90;;;;;;5045219;28;20402;-74
2021/04/26 04:50:06;;;;;;;3.63;1.35;;;3.10;99.90;;;;;;5045248;28;20041;-73
2021/04/26 04:52:32;;;;;;;8.25;1.75;;;3.10;99.90;;;;;;5045041;28;20391;-73
2021/04/26 04:54:57;;;;;;;3.20;1.73;;;3.10;99.90;;;;;;5044954;28;20112;-73
2021/04/26 04:57:23;;;;;;;4.68;1.08;;;3.10;99.90;;;;;;5044985;28;20029;-74
2021/04/26 04:59:48;;;;;;;2.47;1.50;;;3.10;99.90;;;;;;5044793;28;20085;-74
2021/04/26 05:02:14;;;;;;;3.50;1.45;;;3.20;99.90;;;;;;5044907;28;20036;-74
2021/04/26 05:04:39;;;;;;;3.88;1.42;;;3.20;99.90;;;;;;5043473;28;20025;-74
2021/04/26 05:07:05;;;;;;;5.07;1.55;;;3.30;99.90;;;;;;5043534;28;20044;-73
2021/04/26 05:09:31;;;;;;;8.75;2.42;;;3.30;99.90;;;;;;5044927;28;20041;-74
2021/04/26 05:11:58;;;;;;;5.45;1.60;;;3.40;99.90;;;;;;5043423;28;21203;-73
2021/04/26 05:14:25;;;;;;;2.50;1.27;;;3.50;99.90;;;;;;5044784;28;20035;-73
2021/04/26 05:16:51;;;;;;;2.83;1.35;;;3.60;99.90;;;;;;5043538;28;20029;-74
2021/04/26 05:19:16;;;;;;;5.63;1.50;;;3.70;99.90;;;;;;5044725;28;20366;-72
2021/04/26 05:21:42;;;;;;;2.28;1.52;;;3.80;99.90;;;;;;5044620;28;20080;-73
2021/04/26 05:24:09;;;;;;;3.88;1.40;;;3.90;99.90;;;;;;5044622;28;20041;-73
2021/04/26 05:26:35;;;;;;;8.77;1.98;;;3.90;99.90;;;;;;5044502;28;20028;-75
2021/04/26 05:29:01;;;;;;;1.92;1.27;;;4.00;99.90;;;;;;5043228;28;20068;-73
2021/04/26 05:31:27;;;;;;;3.03;1.30;;;4.00;99.90;;;;;;5044523;28;20030;-73
2021/04/26 05:33:52;;;;;;;3.55;1.40;;;4.00;99.90;;;;;;5044629;28;20033;-73
2021/04/26 05:36:18;;;;;;;6.07;1.15;;;4.00;99.90;;;;;;5044819;28;20057;-72
2021/04/26 05:38:43;;;;;;;6.35;2.15;;;4.00;99.90;;;;;;5050195;28;20030;-75
2021/04/26 05:41:09;;;;;;;3.25;1.77;;;4.00;99.90;;;;;;5052547;28;20036;-75
2021/04/26 05:43:35;;;;;;;2.90;1.20;;;4.00;99.90;;;;;;5062674;28;20037;-76
2021/04/26 05:46:01;;;;;;;6.07;2.10;;;4.10;99.90;;;;;;5057017;28;20103;-73
2021/04/26 05:48:26;;;;;;;2.78;1.60;;;4.20;99.90;;;;;;5059713;28;20470;-73
2021/04/26 05:50:53;;;;;;;3.88;1.58;;;4.20;99.90;;;;;;5048755;28;20094;-73
2021/04/26 05:53:22;;;;;;;4.15;1.48;;;4.30;99.90;;;;;;5047395;28;20075;-73
2021/04/26 05:55:48;;;;;;;4.00;1.13;;;4.40;99.90;;;;;;5049002;28;20087;-73
2021/04/26 05:58:14;;;;;;;1.25;1.13;;;4.40;99.90;;;;;;5048681;28;20073;-74
2021/04/26 06:00:40;;;;;;;4.40;1.60;;;4.50;99.90;;;;;;5049598;28;20026;-73
2021/04/26 06:03:06;;;;;;;2.35;1.52;;;4.60;99.90;;;;;;5048665;28;20041;-74
2021/04/26 06:05:32;;;;;;;9.40;1.83;;;4.60;99.90;;;;;;5048214;28;20026;-75
2021/04/26 06:07:59;;;;;;;3.88;1.52;;;4.80;99.90;;;;;;5046527;28;20040;-73
2021/04/26 06:10:25;;;;;;;5.75;1.48;;;4.90;99.90;;;;;;5047694;28;20085;-74
2021/04/26 06:12:50;;;;;;;2.15;1.27;;;5.00;99.90;;;;;;5046660;28;20048;-73
2021/04/26 06:15:16;;;;;;;5.20;1.50;;;5.10;99.90;;;;;;5046920;28;20474;-74
2021/04/26 06:17:42;;;;;;;3.92;1.20;;;5.20;99.90;;;;;;5052073;28;20025;-74
2021/04/26 06:20:08;;;;;;;1.42;1.00;;;5.30;99.90;;;;;;5057179;28;20079;-74
2021/04/26 06:22:33;;;;;;;3.10;1.45;;;5.50;99.90;;;;;;5053975;28;20050;-76
2021/04/26 06:24:59;;;;;;;6.72;1.73;;;5.60;99.90;;;;;;5059242;28;20029;-74
2021/04/26 06:27:25;;;;;;;3.15;0.98;;;5.70;99.90;;;;;;5046388;28;20056;-74
2021/04/26 06:29:51;;;;;;;2.63;1.15;;;5.80;99.90;;;;;;5047505;28;20486;-76
2021/04/26 06:32:16;;;;;;;1.70;0.68;;;6.00;99.90;;;;;;5046557;28;20025;-75
2021/04/26 06:34:42;;;;;;;1.20;0.55;;;6.10;99.90;;;;;;5047616;28;20030;-75
2021/04/26 06:37:08;;;;;;;0.65;0.40;;;6.30;99.90;;;;;;5046773;28;20075;-73
2021/04/26 06:39:34;;;;;;;2.33;0.80;;;6.30;99.90;;;;;;5047615;28;20057;-76
2021/04/26 06:42:00;;;;;;;1.85;0.90;;;6.40;99.90;;;;;;5046286;28;20037;-75
2021/04/26 06:44:27;;;;;;;1.23;0.75;;;6.40;99.90;;;;;;5047596;28;20089;-74
2021/04/26 06:46:53;;;;;;;0.65;0.50;;;6.50;99.90;;;;;;5047783;28;20113;-75
2021/04/26 06:49:20;;;;;;;2.03;0.80;;;6.60;99.90;;;;;;5047596;28;20030;-75
2021/04/26 06:51:49;;;;;;;2.47;0.80;;;6.70;99.90;;;;;;5046892;28;20025;-74
2021/04/26 06:54:15;;;;;;;1.35;0.40;;;6.80;99.90;;;;;;5047781;28;20021;-76
2021/04/26 06:56:41;;;;;;;3.97;0.77;;;6.80;99.90;;;;;;5046566;28;20041;-74
2021/04/26 06:59:07;;;;;;;1.45;0.77;;;6.90;99.90;;;;;;5047945;28;20025;-76
2021/04/26 07:01:32;;;;;;;3.08;0.57;;;7.10;99.90;;;;;;5046525;28;20064;-75
2021/04/26 07:03:58;;;;;;;3.53;0.60;;;7.10;99.90;;;;;;5047283;28;20037;-74
2021/04/26 07:06:24;;;;;;;1.42;0.40;;;7.20;99.90;;;;;;5047415;28;20033;-73
2021/04/26 07:08:49;;;;;;;1.35;0.70;;;7.40;99.90;;;;;;5055791;28;20127;-75
2021/04/26 07:11:15;;;;;;;1.17;0.88;;;7.50;99.90;;;;;;5052695;28;20044;-74
2021/04/26 07:13:41;;;;;;;5.70;0.98;;;7.70;99.90;;;;;;5047146;28;20025;-74
2021/04/26 07:16:07;;;;;;;3.35;0.75;;;7.80;99.90;;;;;;5046202;28;20033;-74
2021/04/26 07:18:32;;;;;;;1.75;0.55;;;8.00;99.90;;;;;;5047451;28;20536;-74
2021/04/26 07:20:58;;;;;;;0.82;0.50;;;8.00;99.90;;;;;;5046935;28;20052;-75
2021/04/26 07:23:23;;;;;;;0.40;0.25;;;8.20;99.90;;;;;;5046821;28;20061;-74
2021/04/26 07:25:49;;;;;;;0.50;0.30;;;8.30;99.90;;;;;;5046640;28;20090;-75
2021/04/26 07:28:15;;;;;;;1.48;0.80;;;8.40;99.90;;;;;;5045573;28;20116;-76
2021/04/26 07:30:40;;;;;;;0.88;0.50;;;8.50;99.90;;;;;;5047253;28;20052;-74
2021/04/26 07:33:07;;;;;;;1.92;0.82;;;8.60;99.90;;;;;;5047043;28;20052;-75
2021/04/26 07:35:32;;;;;;;1.10;0.45;;;8.70;99.90;;;;;;5045890;28;20116;-74
2021/04/26 07:37:59;;;;;;;0.85;0.63;;;8.90;99.90;;;;;;5046153;28;20371;-73
2021/04/26 07:40:24;;;;;;;2.13;0.80;;;9.00;99.90;;;;;;5045298;28;20033;-74
2021/04/26 07:42:50;;;;;;;3.22;0.88;;;9.20;99.90;;;;;;5046646;28;20033;-74
2021/04/26 07:45:19;;;;;;;1.13;0.57;;;9.30;99.90;;;;;;5046770;28;20453;-75
2021/04/26 07:47:45;;;;;;;1.13;0.45;;;9.40;99.90;;;;;;5045222;28;20036;-73
2021/04/26 07:50:12;;;;;;;3.22;0.80;;;9.50;99.90;;;;;;5044398;28;20042;-76
2021/04/26 07:52:38;;;;;;;3.13;0.55;;;9.60;99.90;;;;;;5044115;28;20040;-77
2021/04/26 07:55:04;;;;;;;1.55;0.90;;;9.60;99.90;;;;;;5056061;28;20033;-76
2021/04/26 07:57:32;;;;;;;0.55;0.40;;;9.60;99.90;;;;;;5065474;28;20028;-74
2021/04/26 08:00:06;;;;;;;0.63;0.45;;;9.70;99.90;;;;;;5058357;28;20029;-75
2021/04/26 08:02:31;;;;;;;;;;;9.80;99.90;;;;;;5060280;28;20555;-74
2021/04/26 08:04:57;;;;;;;0.20;0.10;;;9.90;99.90;;;;;;5063550;28;19908;-74
2021/04/26 08:07:23;;;;;;;1.42;0.75;;;10.00;99.90;;;;;;5064417;28;20033;-75
2021/04/26 08:09:49;;;;;;;0.73;0.38;;;10.10;99.90;;;;;;5048422;28;20386;-75
2021/04/26 08:12:14;;;;;;;1.33;0.60;;;10.30;99.90;;;;;;5046001;28;20022;-75
2021/04/26 08:14:40;;;;;;;2.50;0.80;;;10.40;99.90;;;;;;5046191;28;20037;-75
2021/04/26 08:17:05;;;;;;;0.85;0.52;;;10.40;99.90;;;;;;5046505;28;20128;-74
2021/04/26 08:19:31;;;;;;;0.28;0.20;;;10.40;99.90;;;;;;5046616;28;20493;-76
2021/04/26 08:21:57;;;;;;;1.85;0.73;;;10.40;99.90;;;;;;5046240;28;20462;-74
2021/04/26 08:24:22;;;;;;;6.75;0.30;;;10.40;99.90;;;;;;5044162;28;20025;-74
2021/04/26 08:26:48;;;;;;;4.78;1.08;;;10.60;99.90;;;;;;5045809;28;20025;-74
2021/04/26 08:29:14;;;;;;;0.20;0.20;;;10.80;99.90;;;;;;5045813;28;20037;-74
2021/04/26 08:31:40;;;;;;;0.55;0.50;;;11.00;99.90;;;;;;5047416;28;20025;-74
2021/04/26 08:34:07;;;;;;;0.70;0.50;;;11.20;99.90;;;;;;5065965;28;20029;-75
2021/04/26 08:36:33;;;;;;;0.68;0.45;;;11.40;99.90;;;;;;5064343;28;20083;-75
2021/04/26 08:39:00;;;;;;;2.78;0.55;;;11.60;99.90;;;;;;5065724;28;20049;-75
2021/04/26 08:41:26;;;;;;;1.50;0.70;;;11.70;99.90;;;;;;5063511;28;20025;-75
2021/04/26 08:43:52;;;;;;;0.65;0.45;;;11.60;99.70;;;;;;5065454;28;20025;-74
2021/04/26 08:46:18;;;;;;;0.93;0.55;;;11.50;99.20;;;;;;5059254;28;20481;-76
2021/04/26 08:48:44;;;;;;;1.75;0.73;;;11.50;99.60;;;;;;5052911;28;20040;-75
2021/04/26 08:51:09;;;;;;;0.75;0.40;;;11.50;98.40;;;;;;5064345;28;20107;-76
2021/04/26 08:53:37;;;;;;;0.90;0.60;;;11.80;99.90;;;;;;5064436;28;20021;-76
2021/04/26 08:56:08;;;;;;;1.70;0.68;;;12.20;96.30;;;;;;5066209;28;20025;-75
2021/04/26 08:58:35;;;;;;;1.45;0.65;;;12.30;97.10;;;;;;5066049;28;20033;-78
2021/04/26 09:01:01;;;;;;;0.65;0.40;;;12.20;96.90;;;;;;5066322;28;20033;-76
2021/04/26 09:03:36;;;;;;;1.65;0.63;;;12.00;97.10;;;;;;5061928;28;20068;-75
2021/04/26 09:06:02;;;;;;;0.65;0.40;;;11.90;96.50;;;;;;5064435;28;20051;-76
2021/04/26 09:08:29;;;;;;;2.30;0.57;;;12.00;94.50;;;;;;5064648;28;20033;-75
2021/04/26 09:11:05;;;;;;;1.02;0.70;;;11.80;94.80;;;;;;5064459;28;20098;-75
2021/04/26 09:13:45;;;;;;;1.48;0.50;;;11.70;95.60;;;;;;5063627;28;20033;-75
2021/04/26 09:16:26;;;;;;;5.70;1.15;;;11.60;95.80;;;;;;5065066;28;20487;-75
2021/04/26 09:18:55;;;;;;;1.38;0.65;;;11.40;94.60;;;;;;5064501;28;20078;-75
2021/04/26 09:21:25;;;;;;;2.00;0.55;;;11.30;95.10;;;;;;5063931;28;20033;-76
2021/04/26 09:24:13;;;;;;;6.78;0.80;;;11.20;95.40;;;;;;5064744;28;20115;-76
2021/04/26 09:26:39;;;;;;;8.15;2.22;;;11.00;94.80;;;;;;5063036;28;20051;-76
2021/04/26 09:29:28;;;;;;;3.50;0.32;;;10.80;93.60;;;;;;5064928;28;20063;-75
2021/04/26 09:32:02;;;;;;;6.60;0.82;;;10.70;93.80;;;;;;5055368;28;20106;-74
2021/04/26 09:34:37;;;;;;;3.10;0.50;;;10.70;94.70;;;;;;5051221;28;20100;-73
2021/04/26 09:37:09;;;;;;;0.85;0.43;;;10.80;95.10;;;;;;5043506;28;20029;-75
2021/04/26 09:39:38;;;;;;;1.17;0.52;;;11.10;95.50;;;;;;5044995;28;20033;-75
2021/04/26 09:42:05;;;;;;;2.25;0.77;;;11.50;96.60;;;;;;5051121;28;20080;-77
2021/04/26 09:44:31;;;;;;;0.65;0.50;;;12.10;95.80;;;;;;5057312;28;20091;-73
2021/04/26 09:46:57;;;;;;;0.68;0.45;;;12.50;93.90;;;;;;5043265;28;20048;-73
2021/04/26 09:49:25;;;;;;;1.23;0.70;;;12.70;91.70;;;;;;5044538;28;20103;-76
2021/04/26 09:51:53;;;;;;;2.10;0.55;;;12.90;91.20;;;;;;5042482;28;20025;-74
2021/04/26 09:54:41;;;;;;;1.33;0.45;;;13.10;93.00;;;;;;5044568;28;20033;-74
2021/04/26 09:57:07;;;;;;;0.57;0.52;;;13.00;93.20;;;;;;5043392;28;20026;-75
2021/04/26 09:59:33;;;;;;;3.58;0.60;;;13.00;93.00;;;;;;5044848;28;20104;-72
2021/04/26 10:02:05;;;;;;;1.70;0.80;;;13.10;90.90;;;;;;5044748;28;20030;-73
2021/04/26 10:04:31;;;;;;;0.38;0.38;;;13.00;91.90;;;;;;5049346;28;20033;-74
2021/04/26 10:06:57;;;;;;;0.90;0.52;;;13.00;93.00;;;;;;5048026;28;20036;-77
2021/04/26 10:09:23;;;;;;;2.25;0.90;;;13.30;93.60;;;;;;5049910;28;20119;-75
2021/04/26 10:11:49;;;;;;;1.38;0.50;;;13.90;92.30;;;;;;5051901;28;20474;-75
2021/04/26 10:14:19;;;;;;;0.95;0.70;;;14.30;91.30;;;;;;5046286;28;20026;-72
2021/04/26 10:16:58;;;;;;;0.95;0.60;;;14.80;91.40;;;;;;5062368;28;20465;-72
2021/04/26 10:19:36;;;;;;;2.22;0.73;;;15.20;92.10;;;;;;5063916;28;20499;-74
2021/04/26 10:22:05;;;;;;;1.88;0.68;;;15.50;87.90;;;;;;5060094;28;20208;-73
2021/04/26 10:24:32;;;;;;;1.48;0.70;;;15.70;85.90;;;;;;5057494;28;20051;-73
2021/04/26 10:27:00;;;;;;;0.43;0.32;;;16.00;90.50;;;;;;5044878;28;20515;-74
2021/04/26 10:29:35;;;;;;;1.33;0.80;;;16.30;83.60;;;;;;5047746;28;20052;-74
2021/04/26 10:32:13;;;;;;;0.77;0.30;;;16.40;86.80;;;;;;5046472;28;20120;-75
2021/04/26 10:34:42;;;;;;;1.23;0.60;;;16.10;84.80;;;;;;5048234;28;20079;-74
2021/04/26 10:37:16;;;;;;;1.25;0.93;;;15.80;81.40;;;;;;5067072;28;20116;-73
2021/04/26 10:40:00;;;;;;;0.88;0.38;;;15.30;83.00;;;;;;5067710;28;20033;-74
2021/04/26 10:42:45;;;;;;;0.80;0.40;;;14.80;82.60;;;;;;5067236;28;20041;-73
2021/04/26 10:45:19;;;;;;;1.75;0.63;;;14.40;83.70;;;;;;5067534;28;20060;-76
2021/04/26 10:48:09;;;;;;;4.68;0.80;;;14.00;79.30;;;;;;5067431;28;20021;-75
2021/04/26 10:50:38;;;;;;;0.75;0.45;;;13.70;82.70;;;;;;5067652;28;20043;-73
2021/04/26 10:53:07;;;;;;;0.45;0.40;;;13.60;83.50;;;;;;5067559;28;20025;-75
2021/04/26 10:55:32;;;;;;;1.25;0.65;;;14.10;86.60;;;;;;5067576;28;20470;-75
2021/04/26 10:58:02;;;;;;;2.42;0.50;;;14.70;86.80;;;;;;5061911;28;20043;-72
2021/04/26 11:00:32;;;;;;;9.40;0.40;;;15.30;86.60;;;;;;5059455;28;20047;-75
2021/04/26 11:03:25;;;;;;;1.67;0.65;;;16.00;81.20;;;;;;5066480;28;20035;-74
2021/04/26 11:05:52;;;;;;;1.00;0.50;;;16.40;78.80;;;;;;5066849;28;20021;-74
2021/04/26 11:08:45;;;;;;;0.90;0.45;;;16.60;78.90;;;;;;5066767;28;20025;-76
2021/04/26 11:11:17;;;;;;;0.77;0.55;;;16.80;74.50;;;;;;5067221;28;20037;-76
2021/04/26 11:13:52;;;;;;;0.88;0.55;;;16.50;73.10;;;;;;5065475;28;20029;-76
2021/04/26 11:16:20;;;;;;;0.85;0.60;;;15.90;74.70;;;;;;5065471;28;20072;-74
2021/04/26 11:18:58;;;;;;;0.85;0.40;;;15.50;76.60;;;;;;5065283;28;20037;-74
2021/04/26 11:21:48;;;;;;;1.35;0.57;;;14.90;77.00;;;;;;5066897;28;20596;-75
2021/04/26 11:24:16;;;;;;;1.92;0.90;;;14.70;74.70;;;;;;5065331;28;20041;-74
2021/04/26 11:26:41;;;;;;;2.33;0.70;;;14.40;78.00;;;;;;5066652;28;20466;-78
2021/04/26 11:29:08;;;;;;;2.97;0.65;;;14.00;76.60;;;;;;5065257;28;20040;-76
2021/04/26 11:31:40;;;;;;;0.60;0.55;;;14.00;77.30;;;;;;5066894;28;20076;-75
2021/04/26 11:34:09;;;;;;;1.63;0.63;;;14.50;80.70;;;;;;5066582;28;20079;-75
2021/04/26 11:36:37;;;;;;;2.45;0.60;;;15.20;77.60;;;;;;5066389;28;20053;-74
2021/04/26 11:39:09;;;;;;;1.98;0.50;;;15.80;77.20;;;;;;5066377;28;20456;-75
2021/04/26 11:41:43;;;;;;;1.35;0.40;;;16.40;74.80;;;;;;5066338;28;20075;-75
2021/04/26 11:44:09;;;;;;;;;;;16.80;73.40;;;;;;5066708;28;20088;-78
2021/04/26 11:46:36;;;;;;;1.70;0.70;;;17.30;70.10;;;;;;5066294;28;19905;-77
2021/04/26 11:49:22;;;;;;;1.50;0.90;;;17.10;72.30;;;;;;5064324;28;20044;-75
2021/04/26 11:51:50;;;;;;;0.60;0.47;;;16.90;72.30;;;;;;5058754;28;20047;-76
2021/04/26 11:54:25;;;;;;;1.23;0.65;;;17.10;72.10;;;;;;5055509;28;20021;-74
2021/04/26 11:57:08;;;;;;;0.90;0.50;;;17.00;71.10;;;;;;5045625;28;20032;-75
2021/04/26 11:59:36;;;;;;;1.13;0.47;;;17.00;73.00;;;;;;5044430;28;20395;-76
2021/04/26 12:02:02;;;;;;;0.57;0.30;;;17.00;71.10;;;;;;5046240;28;20029;-75
2021/04/26 12:04:37;;;;;;;2.40;0.95;;;16.80;73.60;;;;;;5044511;28;20028;-76
2021/04/26 12:07:03;;;;;;;4.63;1.00;;;16.70;72.00;;;;;;5044555;28;20089;-76
2021/04/26 12:09:30;;;;;;;0.75;0.50;;;16.60;70.90;;;;;;5044399;28;20064;-75
2021/04/26 12:12:04;;;;;;;1.08;0.50;;;16.60;73.30;;;;;;5045721;28;20452;-76
2021/04/26 12:14:30;;;;;;;0.63;0.50;;;17.00;72.30;;;;;;5046173;28;20703;-77
2021/04/26 12:17:15;;;;;;;0.45;0.43;;;17.10;68.50;;;;;;5044722;28;20064;-76
2021/04/26 12:19:42;;;;;;;0.80;0.60;;;17.00;68.20;;;;;;5046226;28;20021;-76
2021/04/26 12:22:20;;;;;;;0.63;0.47;;;16.80;69.70;;;;;;5046029;28;21604;-76
2021/04/26 12:24:47;;;;;;;0.30;0.20;;;16.90;70.30;;;;;;5044585;28;20036;-77
2021/04/26 12:27:15;;;;;;;1.75;0.75;;;17.30;69.10;;;;;;5045550;28;20075;-77
2021/04/26 12:29:41;;;;;;;1.20;0.50;;;17.80;68.00;;;;;;5045329;28;20029;-76
2021/04/26 12:32:12;;;;;;;0.52;0.50;;;18.30;69.70;;;;;;5045879;28;20493;-76
2021/04/26 12:34:56;;;;;;;8.02;0.68;;;19.00;69.30;;;;;;5045867;28;20040;-77
2021/04/26 12:37:26;;;;;;;0.87;0.50;;;19.20;63.80;;;;;;5044721;28;20096;-77
2021/04/26 12:39:52;;;;;;;0.73;0.60;;;18.80;66.50;;;;;;5045828;28;20025;-75
2021/04/26 12:42:20;;;;;;;1.60;0.60;;;18.70;66.30;;;;;;5044426;28;20033;-78
2021/04/26 12:44:48;;;;;;;0.82;0.50;;;18.10;62.50;;;;;;5045615;28;20076;-77
2021/04/26 12:47:22;;;;;;;1.35;0.63;;;17.70;66.10;;;;;;5046113;28;20025;-77
2021/04/26 12:50:08;;;;;;;2.58;0.95;;;17.70;66.00;;;;;;5043499;28;20063;-77
2021/04/26 12:52:36;;;;;;;1.55;0.75;;;18.00;67.60;;;;;;5045419;28;20029;-76
2021/04/26 12:55:08;;;;;;;2.53;0.40;;;18.60;66.00;;;;;;5045471;28;20025;-78
2021/04/26 12:57:34;;;;;;;1.90;0.98;;;19.00;65.40;;;;;;5044161;28;20028;-77
2021/04/26 13:00:00;;;;;;;5.90;2.72;;;19.20;65.90;;;;;;5045229;28;20037;-77